createdAt,value
2022-08-17T00:00:44.136Z,43.13
2022-08-17T00:03:19.865Z,43.24
2022-08-17T00:06:04.903Z,43.20
2022-08-17T00:08:38.425Z,43.30
2022-08-17T00:11:35.286Z,43.02
2022-08-17T00:14:15.417Z,43.23
2022-08-17T00:16:57.094Z,43.38
2022-08-17T00:19:27.240Z,43.47
2022-08-17T00:22:34.131Z,43.38
2022-08-17T00:24:48.702Z,43.60
2022-08-17T00:27:17.190Z,43.75
2022-08-17T00:29:45.953Z,43.53
2022-08-17T00:33:12.681Z,43.69
2022-08-17T00:35:14.446Z,43.80
2022-08-17T00:37:45.670Z,43.91
2022-08-17T00:40:15.614Z,44.02
2022-08-17T00:42:47.020Z,44.07
2022-08-17T00:45:16.835Z,44.03
2022-08-17T00:47:44.741Z,44.08
2022-08-17T00:50:18.995Z,44.02
2022-08-17T00:52:57.500Z,43.77
2022-08-17T00:55:26.494Z,43.99
2022-08-17T00:58:00.095Z,44.25
2022-08-17T01:00:37.657Z,43.99
2022-08-17T01:03:27.530Z,44.24
2022-08-17T01:06:02.667Z,44.11
2022-08-17T01:08:33.081Z,44.18
2022-08-17T01:11:03.174Z,44.52
2022-08-17T01:13:43.829Z,43.98
2022-08-17T01:16:31.574Z,44.43
2022-08-17T01:19:26.242Z,44.05
2022-08-17T01:22:01.737Z,44.39
2022-08-17T01:24:30.624Z,44.68
2022-08-17T01:27:02.748Z,44.96
2022-08-17T01:29:41.759Z,44.96
2022-08-17T01:32:11.139Z,45.08
2022-08-17T01:34:43.322Z,45.03
2022-08-17T01:37:28.122Z,44.81
2022-08-17T01:40:18.385Z,44.85
2022-08-17T01:42:56.840Z,45.18
2022-08-17T01:45:30.570Z,45.05
2022-08-17T01:47:58.743Z,45.43
2022-08-17T01:50:34.595Z,45.10
2022-08-17T01:53:15.323Z,45.36
2022-08-17T01:55:58.358Z,45.14
2022-08-17T01:58:27.780Z,45.49
2022-08-17T02:01:00.566Z,45.37
2022-08-17T02:03:31.481Z,45.38
2022-08-17T02:05:59.946Z,45.36
2022-08-17T02:08:38.103Z,45.48
2022-08-17T02:11:14.700Z,45.16
2022-08-17T02:13:45.196Z,45.56
2022-08-17T02:16:13.844Z,45.61
2022-08-17T02:18:42.163Z,45.91
2022-08-17T02:21:10.666Z,45.91
2022-08-17T02:23:43.354Z,45.96
2022-08-17T02:26:24.095Z,46.11
2022-08-17T02:28:55.624Z,46.28
2022-08-17T02:31:23.485Z,46.35
2022-08-17T02:34:00.261Z,46.23
2022-08-17T02:36:34.744Z,46.41
2022-08-17T02:39:07.084Z,46.26
2022-08-17T02:41:36.511Z,46.05
2022-08-17T02:44:06.018Z,46.11
2022-08-17T02:46:33.977Z,46.16
2022-08-17T02:49:01.970Z,46.43
2022-08-17T02:51:29.937Z,46.46
2022-08-17T02:54:38.941Z,46.62
2022-08-17T02:56:46.662Z,46.46
2022-08-17T02:59:14.579Z,46.31
2022-08-17T03:01:42.855Z,46.29
2022-08-17T03:04:11.055Z,46.24
2022-08-17T03:06:39.606Z,46.08
2022-08-17T03:09:09.476Z,45.99
2022-08-17T03:11:37.402Z,45.94
2022-08-17T03:14:05.339Z,45.87
2022-08-17T03:16:33.532Z,45.89
2022-08-17T03:19:02.625Z,45.60
2022-08-17T03:21:30.527Z,45.51
2022-08-17T03:23:58.442Z,45.66
2022-08-17T03:26:29.647Z,45.23
2022-08-17T03:28:57.922Z,45.47
2022-08-17T03:31:25.916Z,45.55
2022-08-17T03:33:53.912Z,45.48
2022-08-17T03:36:22.028Z,45.42
2022-08-17T03:38:50.410Z,45.37
2022-08-17T03:41:19.071Z,45.42
2022-08-17T03:43:47.945Z,45.59
2022-08-17T03:46:35.693Z,45.22
2022-08-17T03:49:25.473Z,45.44
2022-08-17T03:52:14.707Z,45.24
2022-08-17T03:55:03.080Z,45.33
2022-08-17T03:57:32.652Z,45.51
2022-08-17T04:00:00.810Z,45.80
2022-08-17T04:02:34.080Z,45.66
2022-08-17T04:05:02.731Z,45.60
2022-08-17T04:07:32.400Z,45.79
2022-08-17T04:10:00.867Z,45.99
2022-08-17T04:12:42.346Z,45.74
2022-08-17T04:15:12.978Z,45.82
2022-08-17T04:17:41.184Z,45.78
2022-08-17T04:20:11.382Z,45.86
2022-08-17T04:22:40.605Z,45.94
2022-08-17T04:25:17.056Z,45.74
2022-08-17T04:27:45.205Z,45.66
2022-08-17T04:30:14.203Z,45.91
2022-08-17T04:33:04.895Z,45.54
2022-08-17T04:35:53.980Z,45.84
2022-08-17T04:38:26.001Z,45.81
2022-08-17T04:41:14.351Z,45.89
2022-08-17T04:43:46.805Z,45.98
2022-08-17T04:46:22.805Z,45.90
2022-08-17T04:48:55.901Z,46.11
2022-08-17T04:51:56.880Z,45.89
2022-08-17T04:54:29.738Z,46.24
2022-08-17T04:56:58.146Z,45.96
2022-08-17T04:59:26.120Z,45.97
2022-08-17T05:01:54.949Z,45.98
2022-08-17T05:04:34.299Z,46.06
2022-08-17T05:07:04.609Z,46.18
2022-08-17T05:09:32.941Z,46.33
2022-08-17T05:12:02.622Z,46.31
2022-08-17T05:14:32.852Z,46.28
2022-08-17T05:17:07.145Z,46.62
2022-08-17T05:19:39.687Z,46.53
2022-08-17T05:22:08.156Z,46.80
2022-08-17T05:24:40.807Z,46.38
2022-08-17T05:27:14.298Z,46.67
2022-08-17T05:29:47.179Z,46.59
2022-08-17T05:32:37.420Z,46.32
2022-08-17T05:35:03.732Z,46.50
2022-08-17T05:37:32.381Z,46.22
2022-08-17T05:40:00.414Z,46.31
2022-08-17T05:42:28.672Z,46.06
2022-08-17T05:44:58.848Z,45.87
2022-08-17T05:47:28.366Z,45.87
2022-08-17T05:49:57.157Z,46.03
2022-08-17T05:53:00.379Z,45.89
2022-08-17T05:55:51.656Z,45.42
2022-08-17T05:59:08.743Z,45.52
2022-08-17T06:01:58.050Z,45.68
2022-08-17T06:04:41.335Z,45.78
2022-08-17T06:07:27.643Z,45.62
2022-08-17T06:10:23.213Z,45.55
2022-08-17T06:13:28.021Z,45.42
2022-08-17T06:16:33.575Z,45.40
2022-08-17T06:19:17.500Z,45.22
2022-08-17T06:21:50.868Z,45.20
2022-08-17T06:24:34.271Z,44.92
2022-08-17T06:27:11.571Z,44.71
2022-08-17T06:30:09.652Z,44.63
2022-08-17T06:32:42.804Z,44.46
2022-08-17T06:35:16.114Z,44.50
2022-08-17T06:38:05.620Z,44.40
2022-08-17T06:41:43.577Z,44.43
2022-08-17T06:45:02.977Z,44.52
2022-08-17T06:47:51.522Z,44.34
2022-08-17T06:50:47.255Z,44.24
2022-08-17T06:53:22.251Z,44.44
2022-08-17T06:56:14.184Z,44.46
2022-08-17T06:58:44.882Z,44.54
2022-08-17T07:01:19.395Z,44.41
2022-08-17T07:03:55.002Z,44.39
2022-08-17T07:06:29.790Z,44.68
2022-08-17T07:09:18.797Z,44.88
2022-08-17T07:11:56.206Z,44.85
2022-08-17T07:14:48.250Z,44.59
2022-08-17T07:17:18.964Z,44.44
2022-08-17T07:19:52.858Z,44.72
2022-08-17T07:22:25.952Z,44.69
2022-08-17T07:25:09.510Z,44.46
2022-08-17T07:27:41.948Z,44.40
2022-08-17T07:30:18.578Z,44.57
2022-08-17T07:33:13.409Z,44.47
2022-08-17T07:35:44.053Z,44.48
2022-08-17T07:38:25.147Z,44.43
2022-08-17T07:40:58.004Z,44.38
2022-08-17T07:43:29.401Z,44.42
2022-08-17T07:46:48.400Z,44.15
2022-08-17T07:49:31.876Z,44.24
2022-08-17T07:52:50.484Z,43.97
2022-08-17T07:55:35.001Z,43.67
2022-08-17T07:58:03.894Z,43.57
2022-08-17T08:00:33.650Z,43.15
2022-08-17T08:03:20.735Z,43.05
2022-08-17T08:06:01.557Z,43.08
2022-08-17T08:08:43.884Z,42.83
2022-08-17T08:11:27.955Z,42.46
2022-08-17T08:13:58.715Z,42.75
2022-08-17T08:16:31.765Z,42.43
2022-08-17T08:19:02.899Z,42.55
2022-08-17T08:21:52.196Z,42.15
2022-08-17T08:25:08.450Z,42.13
2022-08-17T08:28:09.855Z,41.96
2022-08-17T08:30:47.129Z,41.79
2022-08-17T08:33:49.750Z,41.94
2022-08-17T08:36:56.929Z,41.67
2022-08-17T08:39:58.677Z,41.87
2022-08-17T08:42:48.154Z,41.67
2022-08-17T08:45:45.277Z,41.96
2022-08-17T08:48:45.972Z,41.85
2022-08-17T08:51:47.926Z,41.48
2022-08-17T08:54:57.062Z,41.71
2022-08-17T08:58:08.625Z,41.41
2022-08-17T09:01:01.041Z,41.21
2022-08-17T09:05:12.735Z,41.24
2022-08-17T09:07:43.718Z,41.04
2022-08-17T09:10:11.923Z,40.99
2022-08-17T09:12:54.501Z,40.47
2022-08-17T09:15:31.469Z,40.67
2022-08-17T09:19:01.747Z,40.48
2022-08-17T09:21:33.943Z,40.27
2022-08-17T09:24:33.200Z,40.43
2022-08-17T09:27:30.625Z,40.13
2022-08-17T09:30:09.420Z,39.82
2022-08-17T09:32:55.207Z,39.98
2022-08-17T09:36:05.741Z,39.55
2022-08-17T09:39:42.285Z,39.80
2022-08-17T09:43:05.532Z,39.72
2022-08-17T09:45:42.615Z,39.48
2022-08-17T09:48:38.918Z,39.47
2022-08-17T09:51:26.408Z,38.90
2022-08-17T09:53:54.506Z,39.75
2022-08-17T09:56:27.897Z,40.06
2022-08-17T09:59:22.416Z,40.40
2022-08-17T10:02:18.889Z,41.22
2022-08-17T10:05:37.475Z,41.79
2022-08-17T10:08:37.398Z,42.11
2022-08-17T10:12:11.461Z,41.81
2022-08-17T10:15:19.538Z,42.39
2022-08-17T10:17:54.013Z,43.14
2022-08-17T10:21:21.548Z,43.20
2022-08-17T10:24:30.412Z,43.38
2022-08-17T10:27:03.692Z,43.33
2022-08-17T10:29:48.974Z,43.28
2022-08-17T10:32:45.610Z,43.30
2022-08-17T10:35:30.454Z,43.57
2022-08-17T10:38:25.484Z,43.41
2022-08-17T10:41:00.454Z,43.68
2022-08-17T10:44:38.631Z,43.72
2022-08-17T10:47:09.200Z,43.63
2022-08-17T10:49:47.618Z,43.77
2022-08-17T10:52:44.604Z,43.36
2022-08-17T10:55:18.872Z,42.78
2022-08-17T10:57:50.447Z,42.65
2022-08-17T11:00:25.604Z,42.54
2022-08-17T11:02:57.650Z,42.51
2022-08-17T11:05:59.003Z,42.03
2022-08-17T11:08:59.454Z,41.97
2022-08-17T11:11:51.597Z,41.44
2022-08-17T11:14:44.268Z,41.27
2022-08-17T11:17:58.211Z,41.29
2022-08-17T11:21:09.494Z,41.36
2022-08-17T11:24:20.732Z,41.05
2022-08-17T11:27:07.842Z,40.98
2022-08-17T11:30:19.566Z,40.59
2022-08-17T11:32:54.404Z,40.52
2022-08-17T11:35:22.939Z,40.16
2022-08-17T11:38:31.248Z,39.64
2022-08-17T11:41:41.197Z,39.32
2022-08-17T11:45:09.307Z,39.23
2022-08-17T11:48:27.933Z,39.14
2022-08-17T11:51:47.549Z,38.83
2022-08-17T11:54:32.877Z,38.98
2022-08-17T11:57:30.488Z,38.88
2022-08-17T12:00:11.794Z,38.89
2022-08-17T12:02:48.317Z,39.55
2022-08-17T12:05:27.166Z,38.61
2022-08-17T12:08:21.598Z,38.19
2022-08-17T12:11:11.158Z,38.26
2022-08-17T12:13:48.449Z,37.95
2022-08-17T12:16:19.535Z,37.73
2022-08-17T12:19:02.268Z,37.39
2022-08-17T12:21:58.040Z,37.29
2022-08-17T12:24:56.627Z,37.04
2022-08-17T12:28:04.656Z,36.92
2022-08-17T12:30:22.441Z,37.18
2022-08-17T12:32:51.002Z,36.98
2022-08-17T12:35:35.856Z,36.84
2022-08-17T12:38:22.290Z,37.42
2022-08-17T12:40:58.318Z,37.46
2022-08-17T12:43:31.247Z,37.20
2022-08-17T12:46:13.278Z,37.38
2022-08-17T12:48:59.932Z,37.00
2022-08-17T12:51:29.747Z,36.80
2022-08-17T12:53:59.020Z,36.71
2022-08-17T12:56:27.418Z,36.76
2022-08-17T12:58:56.744Z,36.75
2022-08-17T13:01:26.143Z,36.67
2022-08-17T13:04:00.852Z,36.09
2022-08-17T13:06:36.868Z,36.01
2022-08-17T13:09:40.051Z,35.99
2022-08-17T13:12:09.057Z,35.91
2022-08-17T13:14:37.041Z,35.63
2022-08-17T13:17:12.646Z,35.42
2022-08-17T13:19:50.401Z,35.02
2022-08-17T13:22:22.879Z,35.17
2022-08-17T13:25:05.384Z,35.25
2022-08-17T13:27:34.387Z,35.27
2022-08-17T13:30:11.997Z,35.05
2022-08-17T13:32:45.686Z,35.29
2022-08-17T13:35:39.807Z,34.85
2022-08-17T13:38:17.478Z,34.75
2022-08-17T13:40:52.346Z,34.58
2022-08-17T13:43:45.020Z,34.69
2022-08-17T13:46:21.172Z,34.47
2022-08-17T13:49:06.602Z,34.35
2022-08-17T13:51:54.874Z,34.25
2022-08-17T13:54:34.478Z,34.10
2022-08-17T13:57:22.755Z,33.71
2022-08-17T14:00:06.014Z,33.66
2022-08-17T14:02:36.646Z,33.43
2022-08-17T14:05:06.297Z,33.31
2022-08-17T14:07:40.370Z,33.34
2022-08-17T14:10:17.511Z,33.11
2022-08-17T14:12:53.919Z,32.76
2022-08-17T14:15:25.122Z,32.51
2022-08-17T14:18:13.029Z,32.70
2022-08-17T14:20:41.022Z,32.59
2022-08-17T14:23:09.323Z,31.92
2022-08-17T14:25:37.439Z,31.43
2022-08-17T14:28:07.221Z,31.42
2022-08-17T14:30:37.826Z,31.54
2022-08-17T14:33:06.069Z,31.47
2022-08-17T14:35:34.626Z,31.26
2022-08-17T14:38:02.766Z,31.30
2022-08-17T14:40:31.166Z,31.02
2022-08-17T14:42:59.778Z,31.08
2022-08-17T14:45:32.587Z,31.15
2022-08-17T14:48:07.945Z,30.98
2022-08-17T14:50:38.836Z,30.84
2022-08-17T14:53:11.349Z,30.87
2022-08-17T14:55:42.319Z,30.75
2022-08-17T14:58:11.170Z,30.95
2022-08-17T15:00:42.461Z,30.31
2022-08-17T15:03:11.765Z,30.50
2022-08-17T15:05:41.349Z,30.18
2022-08-17T15:08:11.022Z,30.09
2022-08-17T15:10:39.369Z,30.28
2022-08-17T15:13:24.531Z,30.40
2022-08-17T15:15:53.401Z,30.11
2022-08-17T15:18:21.630Z,29.74
2022-08-17T15:20:50.413Z,29.54
2022-08-17T15:23:22.697Z,29.44
2022-08-17T15:25:54.000Z,29.39
2022-08-17T15:28:25.415Z,29.38
2022-08-17T15:30:54.208Z,29.44
2022-08-17T15:33:29.459Z,29.42
2022-08-17T15:36:02.442Z,29.52
2022-08-17T15:38:34.105Z,29.20
2022-08-17T15:41:03.636Z,29.08
2022-08-17T15:43:32.688Z,29.06
2022-08-17T15:46:15.389Z,29.27
2022-08-17T15:48:47.727Z,29.01
2022-08-17T15:51:26.348Z,29.32
2022-08-17T15:53:58.611Z,28.80
2022-08-17T15:56:28.451Z,28.96
2022-08-17T15:58:56.567Z,28.93
2022-08-17T16:02:11.961Z,29.54
2022-08-17T16:04:30.401Z,29.43
2022-08-17T16:07:00.135Z,29.22
2022-08-17T16:09:28.963Z,28.84
2022-08-17T16:11:56.912Z,28.81
2022-08-17T16:14:30.275Z,29.20
2022-08-17T16:17:01.909Z,28.96
2022-08-17T16:19:30.485Z,29.43
2022-08-17T16:21:58.774Z,29.09
2022-08-17T16:24:27.105Z,29.58
2022-08-17T16:26:59.927Z,29.15
2022-08-17T16:29:28.395Z,29.50
2022-08-17T16:31:57.684Z,29.48
2022-08-17T16:34:26.144Z,29.51
2022-08-17T16:36:56.462Z,29.48
2022-08-17T16:39:28.106Z,29.65
2022-08-17T16:41:57.956Z,29.79
2022-08-17T16:44:31.808Z,29.86
2022-08-17T16:47:01.321Z,30.81
2022-08-17T16:49:37.481Z,30.63
2022-08-17T16:52:10.899Z,30.96
2022-08-17T16:54:44.886Z,30.77
2022-08-17T16:57:14.599Z,30.98
2022-08-17T16:59:51.194Z,31.10
2022-08-17T17:02:31.714Z,31.26
2022-08-17T17:05:33.545Z,31.17
2022-08-17T17:08:14.209Z,31.16
2022-08-17T17:10:51.552Z,31.43
2022-08-17T17:13:36.358Z,31.63
2022-08-17T17:16:29.072Z,32.04
2022-08-17T17:19:09.488Z,31.67
2022-08-17T17:22:16.960Z,31.95
2022-08-17T17:25:04.015Z,32.04
2022-08-17T17:28:35.636Z,32.15
2022-08-17T17:31:08.301Z,32.51
2022-08-17T17:33:51.041Z,32.71
2022-08-17T17:36:40.784Z,32.32
2022-08-17T17:39:49.904Z,32.81
2022-08-17T17:42:24.822Z,33.25
2022-08-17T17:45:06.250Z,33.08
2022-08-17T17:47:35.266Z,33.55
2022-08-17T17:50:11.841Z,33.63
2022-08-17T17:52:47.542Z,33.60
2022-08-17T17:55:42.329Z,33.45
2022-08-17T17:58:33.428Z,33.52
2022-08-17T18:01:39.261Z,33.36
2022-08-17T18:04:36.644Z,33.06
2022-08-17T18:07:20.152Z,33.24
2022-08-17T18:10:19.469Z,33.36
2022-08-17T18:13:20.682Z,33.82
2022-08-17T18:15:52.983Z,34.10
2022-08-17T18:18:40.285Z,34.33
2022-08-17T18:21:29.780Z,34.19
2022-08-17T18:24:03.090Z,34.59
2022-08-17T18:26:57.657Z,34.63
2022-08-17T18:29:30.523Z,34.82
2022-08-17T18:32:27.306Z,34.90
2022-08-17T18:35:08.785Z,35.24
2022-08-17T18:37:53.616Z,35.06
2022-08-17T18:40:36.288Z,35.63
2022-08-17T18:43:14.397Z,35.89
2022-08-17T18:45:56.394Z,35.77
2022-08-17T18:48:49.419Z,35.55
2022-08-17T18:51:40.596Z,35.63
2022-08-17T18:54:26.205Z,35.36
2022-08-17T18:57:02.029Z,35.42
2022-08-17T18:59:50.179Z,35.17
2022-08-17T19:02:36.090Z,35.69
2022-08-17T19:05:36.810Z,36.03
2022-08-17T19:08:35.129Z,36.17
2022-08-17T19:11:10.100Z,36.13
2022-08-17T19:14:17.301Z,36.18
2022-08-17T19:17:00.584Z,36.69
2022-08-17T19:19:36.650Z,36.74
2022-08-17T19:22:53.394Z,36.68
2022-08-17T19:25:34.304Z,36.87
2022-08-17T19:28:22.869Z,36.94
2022-08-17T19:31:00.488Z,37.34
2022-08-17T19:33:31.726Z,37.18
2022-08-17T19:36:13.275Z,37.14
2022-08-17T19:39:12.645Z,37.22
2022-08-17T19:41:48.294Z,37.54
2022-08-17T19:44:47.072Z,37.96
2022-08-17T19:47:55.405Z,37.71
2022-08-17T19:50:56.672Z,37.94
2022-08-17T19:54:05.467Z,38.01
2022-08-17T19:57:01.761Z,37.92
2022-08-17T19:59:55.674Z,38.11
2022-08-17T20:03:07.953Z,38.33
2022-08-17T20:06:15.068Z,38.80
2022-08-17T20:08:58.232Z,38.55
2022-08-17T20:11:53.838Z,38.70
2022-08-17T20:14:33.025Z,39.07
2022-08-17T20:17:03.410Z,39.25
2022-08-17T20:20:23.353Z,39.47
2022-08-17T20:23:04.141Z,39.72
2022-08-17T20:25:47.100Z,39.78
2022-08-17T20:28:38.972Z,39.79
2022-08-17T20:31:46.370Z,39.90
2022-08-17T20:34:31.009Z,40.04
2022-08-17T20:37:20.258Z,39.73
2022-08-17T20:39:52.829Z,39.85
2022-08-17T20:42:21.888Z,40.29
2022-08-17T20:44:57.847Z,39.94
2022-08-17T20:48:07.365Z,40.44
2022-08-17T20:50:50.800Z,40.30
2022-08-17T20:53:47.652Z,40.41
2022-08-17T20:56:43.588Z,40.37
2022-08-17T20:59:27.728Z,40.66
2022-08-17T21:02:18.801Z,40.66
2022-08-17T21:04:50.851Z,40.66
2022-08-17T21:07:42.720Z,40.74
2022-08-17T21:10:35.881Z,40.48
2022-08-17T21:13:15.631Z,40.73
2022-08-17T21:16:07.063Z,40.71
2022-08-17T21:19:16.941Z,40.74
2022-08-17T21:22:32.696Z,40.65
2022-08-17T21:25:49.054Z,40.69
2022-08-17T21:28:23.219Z,41.02
2022-08-17T21:31:09.142Z,41.05
2022-08-17T21:33:39.666Z,40.60
2022-08-17T21:36:13.377Z,41.03
2022-08-17T21:38:47.463Z,41.13
2022-08-17T21:41:31.030Z,41.04
2022-08-17T21:44:26.719Z,40.98
2022-08-17T21:47:43.602Z,40.88
2022-08-17T21:50:25.948Z,40.75
2022-08-17T21:53:02.981Z,40.82
2022-08-17T21:55:34.267Z,40.91
2022-08-17T21:58:14.362Z,40.98
2022-08-17T22:00:46.491Z,40.73
2022-08-17T22:03:28.753Z,40.96
2022-08-17T22:05:56.578Z,40.93
2022-08-17T22:08:26.978Z,40.68
2022-08-17T22:11:02.347Z,41.00
2022-08-17T22:13:30.671Z,40.77
2022-08-17T22:16:28.564Z,40.78
2022-08-17T22:18:59.503Z,41.18
2022-08-17T22:21:27.751Z,41.10
2022-08-17T22:24:04.478Z,41.41
2022-08-17T22:27:03.023Z,41.43
2022-08-17T22:29:59.518Z,41.48
2022-08-17T22:32:41.621Z,41.53
2022-08-17T22:35:32.541Z,41.35
2022-08-17T22:38:18.920Z,41.58
2022-08-17T22:41:16.636Z,41.41
2022-08-17T22:43:44.986Z,41.71
2022-08-17T22:46:15.346Z,41.29
2022-08-17T22:48:51.017Z,41.22
2022-08-17T22:51:24.020Z,41.08
2022-08-17T22:54:34.032Z,41.26
2022-08-17T22:57:23.468Z,41.46
2022-08-17T22:59:56.452Z,41.49
2022-08-17T23:02:34.258Z,41.26
2022-08-17T23:05:14.164Z,41.50
2022-08-17T23:07:46.116Z,41.46
2022-08-17T23:10:19.337Z,41.39
2022-08-17T23:12:48.582Z,42.18
2022-08-17T23:15:19.304Z,41.95
2022-08-17T23:17:49.452Z,42.14
2022-08-17T23:20:18.581Z,42.18
2022-08-17T23:22:52.040Z,41.99
2022-08-17T23:25:31.744Z,41.92
2022-08-17T23:28:03.364Z,42.26
2022-08-17T23:30:36.761Z,42.03
2022-08-17T23:33:10.412Z,42.39
2022-08-17T23:35:40.564Z,42.61
2022-08-17T23:38:13.712Z,42.55
2022-08-17T23:40:43.504Z,43.02
2022-08-17T23:43:24.371Z,43.14
2022-08-17T23:45:59.617Z,43.47
2022-08-17T23:48:36.159Z,43.71
2022-08-17T23:51:18.997Z,43.82
2022-08-17T23:53:53.943Z,43.94
2022-08-17T23:56:25.892Z,44.25
2022-08-17T23:58:55.839Z,44.30
